sensor_id;sensor_type;location;lat;lon;timestamp;pressure;altitude;pressure_sealevel;temperature;humidity
48606;BME280;8482;54.396;18.590;2023-05-12T04:47:37;102365.56;;;10.03;58.17
48606;BME280;8482;54.396;18.590;2023-05-12T04:50:03;102360.63;;;10.12;58.27
48606;BME280;8482;54.396;18.590;2023-05-12T04:52:30;102360.31;;;10.19;58.21
48606;BME280;8482;54.396;18.590;2023-05-12T04:54:56;102364.13;;;10.31;58.04
48606;BME280;8482;54.396;18.590;2023-05-12T04:57:22;102372.47;;;10.40;57.78
48606;BME280;8482;54.396;18.590;2023-05-12T04:59:48;102372.19;;;10.47;57.68
48606;BME280;8482;54.396;18.590;2023-05-12T05:02:14;102373.41;;;10.57;57.22
48606;BME280;8482;54.396;18.590;2023-05-12T05:04:40;102368.63;;;10.64;56.43
48606;BME280;8482;54.396;18.590;2023-05-12T05:07:06;102374.38;;;10.72;55.95
48606;BME280;8482;54.396;18.590;2023-05-12T05:09:32;102367.72;;;10.81;55.75
48606;BME280;8482;54.396;18.590;2023-05-12T05:11:58;102367.38;;;10.87;55.16
48606;BME280;8482;54.396;18.590;2023-05-12T05:14:24;102367.75;;;10.97;54.82
48606;BME280;8482;54.396;18.590;2023-05-12T05:16:49;102368.19;;;11.05;54.16
48606;BME280;8482;54.396;18.590;2023-05-12T05:19:15;102370.16;;;11.17;53.70
48606;BME280;8482;54.396;18.590;2023-05-12T05:21:41;102371.34;;;11.28;52.85
48606;BME280;8482;54.396;18.590;2023-05-12T05:24:07;102372.53;;;11.38;52.29
48606;BME280;8482;54.396;18.590;2023-05-12T05:26:34;102379.91;;;11.49;52.33
48606;BME280;8482;54.396;18.590;2023-05-12T05:29:00;102377.75;;;11.56;51.59
48606;BME280;8482;54.396;18.590;2023-05-12T05:31:27;102376.09;;;11.69;51.11
48606;BME280;8482;54.396;18.590;2023-05-12T05:33:54;102380.81;;;11.80;50.72
48606;BME280;8482;54.396;18.590;2023-05-12T05:36:23;102381.22;;;11.88;50.79
48606;BME280;8482;54.396;18.590;2023-05-12T05:38:51;102377.97;;;11.99;50.00
48606;BME280;8482;54.396;18.590;2023-05-12T05:41:17;102374.06;;;12.05;50.00
48606;BME280;8482;54.396;18.590;2023-05-12T05:43:43;102384.09;;;12.16;49.72
48606;BME280;8482;54.396;18.590;2023-05-12T05:46:08;102380.09;;;12.23;49.11
48606;BME280;8482;54.396;18.590;2023-05-12T05:48:34;102378.69;;;12.32;48.61
48606;BME280;8482;54.396;18.590;2023-05-12T05:51:01;102390.50;;;12.42;48.17
48606;BME280;8482;54.396;18.590;2023-05-12T05:53:27;102386.31;;;12.52;47.14
48606;BME280;8482;54.396;18.590;2023-05-12T05:55:53;102389.38;;;12.61;46.63
48606;BME280;8482;54.396;18.590;2023-05-12T05:58:19;102387.09;;;12.69;46.26
48606;BME280;8482;54.396;18.590;2023-05-12T06:00:45;102391.84;;;12.78;46.23
48606;BME280;8482;54.396;18.590;2023-05-12T06:03:11;102384.41;;;12.83;46.16
48606;BME280;8482;54.396;18.590;2023-05-12T06:05:37;102390.88;;;12.94;45.58
48606;BME280;8482;54.396;18.590;2023-05-12T06:08:03;102402.66;;;13.04;45.88
48606;BME280;8482;54.396;18.590;2023-05-12T06:10:30;102402.16;;;13.12;45.06
48606;BME280;8482;54.396;18.590;2023-05-12T06:12:55;102403.50;;;13.19;44.63
48606;BME280;8482;54.396;18.590;2023-05-12T06:15:21;102405.69;;;13.27;44.09
48606;BME280;8482;54.396;18.590;2023-05-12T06:17:47;102401.78;;;13.32;44.04
48606;BME280;8482;54.396;18.590;2023-05-12T06:20:13;102403.88;;;13.42;43.87
48606;BME280;8482;54.396;18.590;2023-05-12T06:22:39;102407.88;;;13.49;43.83
48606;BME280;8482;54.396;18.590;2023-05-12T06:25:07;102411.81;;;13.56;43.46
48606;BME280;8482;54.396;18.590;2023-05-12T06:27:33;102411.31;;;13.64;43.45
48606;BME280;8482;54.396;18.590;2023-05-12T06:29:59;102413.50;;;13.72;43.04
48606;BME280;8482;54.396;18.590;2023-05-12T06:32:25;102412.34;;;13.76;43.02
48606;BME280;8482;54.396;18.590;2023-05-12T06:34:51;102413.53;;;13.85;42.75
48606;BME280;8482;54.396;18.590;2023-05-12T06:37:17;102417.38;;;13.93;42.71
48606;BME280;8482;54.396;18.590;2023-05-12T06:39:42;102414.41;;;13.98;42.25
48606;BME280;8482;54.396;18.590;2023-05-12T06:42:08;102415.72;;;14.05;42.07
48606;BME280;8482;54.396;18.590;2023-05-12T06:44:35;102422.34;;;14.13;42.39
48606;BME280;8482;54.396;18.590;2023-05-12T06:47:02;102426.09;;;14.23;42.38
48606;BME280;8482;54.396;18.590;2023-05-12T06:49:27;102422.19;;;14.29;42.36
48606;BME280;8482;54.396;18.590;2023-05-12T06:51:53;102426.00;;;14.37;42.27
48606;BME280;8482;54.396;18.590;2023-05-12T06:54:19;102424.66;;;14.45;42.24
48606;BME280;8482;54.396;18.590;2023-05-12T06:56:45;102409.69;;;14.42;41.79
48606;BME280;8482;54.396;18.590;2023-05-12T06:59:11;102427.41;;;14.56;41.50
48606;BME280;8482;54.396;18.590;2023-05-12T07:01:37;102408.53;;;14.59;41.62
48606;BME280;8482;54.396;18.590;2023-05-12T07:04:03;102411.63;;;14.66;41.50
48606;BME280;8482;54.396;18.590;2023-05-12T07:06:29;102418.88;;;14.77;41.62
48606;BME280;8482;54.396;18.590;2023-05-12T07:08:56;102413.25;;;14.81;41.21
48606;BME280;8482;54.396;18.590;2023-05-12T07:11:22;102409.16;;;14.89;41.45
48606;BME280;8482;54.396;18.590;2023-05-12T07:13:49;102410.34;;;14.97;41.47
48606;BME280;8482;54.396;18.590;2023-05-12T07:16:16;102419.59;;;15.05;41.34
48606;BME280;8482;54.396;18.590;2023-05-12T07:18:43;102413.84;;;15.11;41.04
48606;BME280;8482;54.396;18.590;2023-05-12T07:21:09;102414.25;;;15.17;41.10
48606;BME280;8482;54.396;18.590;2023-05-12T07:23:36;102422.34;;;15.29;42.09
48606;BME280;8482;54.396;18.590;2023-05-12T07:26:04;102413.22;;;15.31;42.39
48606;BME280;8482;54.396;18.590;2023-05-12T07:28:33;102414.59;;;15.37;42.70
48606;BME280;8482;54.396;18.590;2023-05-12T07:31:07;102422.94;;;15.45;42.73
48606;BME280;8482;54.396;18.590;2023-05-12T07:33:34;102424.41;;;15.50;42.67
48606;BME280;8482;54.396;18.590;2023-05-12T07:36:01;102426.63;;;15.56;42.36
48606;BME280;8482;54.396;18.590;2023-05-12T07:38:27;102423.00;;;15.57;42.01
48606;BME280;8482;54.396;18.590;2023-05-12T07:40:53;102431.44;;;15.63;42.05
48606;BME280;8482;54.396;18.590;2023-05-12T07:43:19;102431.91;;;15.69;42.21
48606;BME280;8482;54.396;18.590;2023-05-12T07:45:45;102422.72;;;15.73;42.64
48606;BME280;8482;54.396;18.590;2023-05-12T07:48:12;102424.94;;;15.79;42.59
48606;BME280;8482;54.396;18.590;2023-05-12T07:50:38;102429.94;;;15.84;42.26
48606;BME280;8482;54.396;18.590;2023-05-12T07:53:05;102436.81;;;15.88;42.49
48606;BME280;8482;54.396;18.590;2023-05-12T07:55:31;102422.97;;;15.94;42.70
48606;BME280;8482;54.396;18.590;2023-05-12T07:58:00;102428.91;;;15.98;42.70
48606;BME280;8482;54.396;18.590;2023-05-12T08:00:26;102431.16;;;16.04;42.57
48606;BME280;8482;54.396;18.590;2023-05-12T08:02:52;102432.72;;;16.06;42.79
48606;BME280;8482;54.396;18.590;2023-05-12T08:05:18;102424.97;;;16.15;43.56
48606;BME280;8482;54.396;18.590;2023-05-12T08:07:44;102429.13;;;16.19;43.67
48606;BME280;8482;54.396;18.590;2023-05-12T08:10:11;102423.66;;;16.20;43.53
48606;BME280;8482;54.396;18.590;2023-05-12T08:12:38;102432.19;;;16.26;43.83
48606;BME280;8482;54.396;18.590;2023-05-12T08:15:06;102429.03;;;16.32;43.76
48606;BME280;8482;54.396;18.590;2023-05-12T08:17:32;102422.22;;;16.39;44.02
48606;BME280;8482;54.396;18.590;2023-05-12T08:19:58;102428.47;;;16.51;43.87
48606;BME280;8482;54.396;18.590;2023-05-12T08:22:24;102424.09;;;16.61;43.90
48606;BME280;8482;54.396;18.590;2023-05-12T08:24:50;102423.50;;;16.80;43.50
48606;BME280;8482;54.396;18.590;2023-05-12T08:27:17;102430.72;;;17.03;42.91
48606;BME280;8482;54.396;18.590;2023-05-12T08:29:43;102428.41;;;17.09;41.90
48606;BME280;8482;54.396;18.590;2023-05-12T08:32:09;102437.19;;;17.11;41.82
48606;BME280;8482;54.396;18.590;2023-05-12T08:34:35;102439.50;;;17.16;42.41
48606;BME280;8482;54.396;18.590;2023-05-12T08:37:01;102445.44;;;17.20;42.28
48606;BME280;8482;54.396;18.590;2023-05-12T08:39:27;102436.44;;;17.21;42.32
48606;BME280;8482;54.396;18.590;2023-05-12T08:44:42;102440.69;;;17.23;42.51
48606;BME280;8482;54.396;18.590;2023-05-12T08:47:10;102437.03;;;17.24;42.49
48606;BME280;8482;54.396;18.590;2023-05-12T08:49:39;102441.19;;;17.28;42.65
48606;BME280;8482;54.396;18.590;2023-05-12T08:52:08;102433.13;;;17.28;42.45
48606;BME280;8482;54.396;18.590;2023-05-12T08:54:35;102441.78;;;17.32;42.62
48606;BME280;8482;54.396;18.590;2023-05-12T08:57:03;102444.09;;;17.37;42.68
48606;BME280;8482;54.396;18.590;2023-05-12T08:59:30;102435.78;;;17.40;42.32
48606;BME280;8482;54.396;18.590;2023-05-12T09:01:58;102429.69;;;17.38;42.39
48606;BME280;8482;54.396;18.590;2023-05-12T09:04:28;102436.91;;;17.37;42.64
48606;BME280;8482;54.396;18.590;2023-05-12T09:06:54;102440.44;;;17.38;42.64
48606;BME280;8482;54.396;18.590;2023-05-12T09:09:20;102432.63;;;17.35;42.32
48606;BME280;8482;54.396;18.590;2023-05-12T09:11:47;102431.53;;;17.37;42.42
48606;BME280;8482;54.396;18.590;2023-05-12T09:14:23;102442.13;;;17.39;42.23
48606;BME280;8482;54.396;18.590;2023-05-12T09:16:59;102427.88;;;17.38;41.79
48606;BME280;8482;54.396;18.590;2023-05-12T09:19:25;102422.25;;;17.41;41.71
48606;BME280;8482;54.396;18.590;2023-05-12T09:21:52;102422.72;;;17.46;41.39
48606;BME280;8482;54.396;18.590;2023-05-12T09:24:17;102410.53;;;17.42;40.93
48606;BME280;8482;54.396;18.590;2023-05-12T09:26:53;102419.22;;;17.46;40.93
48606;BME280;8482;54.396;18.590;2023-05-12T09:29:20;102410.16;;;17.47;41.12
48606;BME280;8482;54.396;18.590;2023-05-12T09:31:54;102406.97;;;17.53;41.16
48606;BME280;8482;54.396;18.590;2023-05-12T09:34:31;102417.91;;;17.61;41.14
48606;BME280;8482;54.396;18.590;2023-05-12T09:37:01;102402.44;;;17.65;41.13
48606;BME280;8482;54.396;18.590;2023-05-12T09:39:28;102402.38;;;17.76;41.36
48606;BME280;8482;54.396;18.590;2023-05-12T09:41:54;102398.34;;;17.82;41.80
48606;BME280;8482;54.396;18.590;2023-05-12T09:44:21;102411.56;;;17.95;42.28
48606;BME280;8482;54.396;18.590;2023-05-12T09:46:48;102411.09;;;18.01;42.43
48606;BME280;8482;54.396;18.590;2023-05-12T09:49:21;102397.13;;;18.07;41.93
48606;BME280;8482;54.396;18.590;2023-05-12T09:51:55;102391.75;;;18.07;41.93
48606;BME280;8482;54.396;18.590;2023-05-12T09:54:27;102390.72;;;18.20;41.59
48606;BME280;8482;54.396;18.590;2023-05-12T09:57:02;102383.69;;;18.29;40.80
48606;BME280;8482;54.396;18.590;2023-05-12T09:59:35;102380.25;;;18.38;38.35
48606;BME280;8482;54.396;18.590;2023-05-12T10:02:05;102370.78;;;18.44;35.88
48606;BME280;8482;54.396;18.590;2023-05-12T10:04:48;102382.34;;;18.65;33.75
48606;BME280;8482;54.396;18.590;2023-05-12T10:07:17;102382.97;;;18.79;32.72
48606;BME280;8482;54.396;18.590;2023-05-12T10:09:48;102367.06;;;18.97;32.17
48606;BME280;8482;54.396;18.590;2023-05-12T10:12:15;102380.69;;;19.15;31.33
48606;BME280;8482;54.396;18.590;2023-05-12T10:14:42;102372.22;;;19.29;31.14
48606;BME280;8482;54.396;18.590;2023-05-12T10:17:09;102369.13;;;19.44;30.70
48606;BME280;8482;54.396;18.590;2023-05-12T10:19:38;102364.59;;;19.64;30.62
48606;BME280;8482;54.396;18.590;2023-05-12T10:22:09;102373.22;;;19.78;30.05
48606;BME280;8482;54.396;18.590;2023-05-12T10:24:36;102366.44;;;19.93;29.45
48606;BME280;8482;54.396;18.590;2023-05-12T10:27:07;102376.78;;;20.08;28.98
48606;BME280;8482;54.396;18.590;2023-05-12T10:29:33;102387.84;;;20.14;28.37
48606;BME280;8482;54.396;18.590;2023-05-12T10:32:00;102384.81;;;20.27;27.62
48606;BME280;8482;54.396;18.590;2023-05-12T10:34:36;102372.91;;;20.30;27.81
48606;BME280;8482;54.396;18.590;2023-05-12T10:37:09;102375.72;;;20.38;27.78
48606;BME280;8482;54.396;18.590;2023-05-12T10:39:36;102365.34;;;20.43;28.06
48606;BME280;8482;54.396;18.590;2023-05-12T10:42:10;102365.16;;;20.55;28.15
48606;BME280;8482;54.396;18.590;2023-05-12T10:44:54;102351.63;;;20.64;27.77
48606;BME280;8482;54.396;18.590;2023-05-12T10:47:24;102356.41;;;20.80;27.96
48606;BME280;8482;54.396;18.590;2023-05-12T10:49:57;102365.00;;;20.94;27.61
48606;BME280;8482;54.396;18.590;2023-05-12T10:52:24;102356.00;;;21.03;27.11
48606;BME280;8482;54.396;18.590;2023-05-12T10:55:00;102364.16;;;21.11;27.17
48606;BME280;8482;54.396;18.590;2023-05-12T10:57:27;102359.88;;;21.19;26.76
48606;BME280;8482;54.396;18.590;2023-05-12T10:59:58;102347.16;;;21.29;26.53
48606;BME280;8482;54.396;18.590;2023-05-12T11:02:26;102349.25;;;21.35;26.45
48606;BME280;8482;54.396;18.590;2023-05-12T11:04:58;102358.25;;;21.44;25.96
48606;BME280;8482;54.396;18.590;2023-05-12T11:07:31;102359.53;;;21.50;25.66
48606;BME280;8482;54.396;18.590;2023-05-12T11:10:01;102358.59;;;21.59;25.52
48606;BME280;8482;54.396;18.590;2023-05-12T11:12:31;102358.19;;;21.72;25.19
48606;BME280;8482;54.396;18.590;2023-05-12T11:15:03;102356.28;;;21.82;25.07
48606;BME280;8482;54.396;18.590;2023-05-12T11:17:30;102366.63;;;21.87;24.81
48606;BME280;8482;54.396;18.590;2023-05-12T11:19:56;102353.16;;;21.95;24.62
48606;BME280;8482;54.396;18.590;2023-05-12T11:22:23;102358.16;;;22.08;24.24
48606;BME280;8482;54.396;18.590;2023-05-12T11:24:50;102356.31;;;22.17;23.87
48606;BME280;8482;54.396;18.590;2023-05-12T11:27:20;102361.94;;;22.24;23.69
48606;BME280;8482;54.396;18.590;2023-05-12T11:29:59;102363.84;;;22.31;23.67
48606;BME280;8482;54.396;18.590;2023-05-12T11:32:25;102360.53;;;22.38;23.29
48606;BME280;8482;54.396;18.590;2023-05-12T11:34:51;102367.16;;;22.43;23.20
48606;BME280;8482;54.396;18.590;2023-05-12T11:37:17;102358.44;;;22.49;22.61
48606;BME280;8482;54.396;18.590;2023-05-12T11:39:45;102362.66;;;22.52;22.31
48606;BME280;8482;54.396;18.590;2023-05-12T11:42:11;102349.84;;;22.62;22.05
48606;BME280;8482;54.396;18.590;2023-05-12T11:44:47;102363.94;;;22.74;21.68
48606;BME280;8482;54.396;18.590;2023-05-12T11:47:15;102356.16;;;22.79;21.34
48606;BME280;8482;54.396;18.590;2023-05-12T11:49:53;102348.94;;;22.88;20.68
48606;BME280;8482;54.396;18.590;2023-05-12T11:52:22;102356.41;;;22.94;20.93
48606;BME280;8482;54.396;18.590;2023-05-12T11:54:56;102349.13;;;23.03;21.21
48606;BME280;8482;54.396;18.590;2023-05-12T11:57:28;102352.38;;;23.15;21.36
48606;BME280;8482;54.396;18.590;2023-05-12T12:00:05;102360.91;;;23.29;21.19
48606;BME280;8482;54.396;18.590;2023-05-12T12:02:32;102351.44;;;23.33;20.58
48606;BME280;8482;54.396;18.590;2023-05-12T12:04:59;102357.53;;;23.43;20.27
48606;BME280;8482;54.396;18.590;2023-05-12T12:07:34;102351.97;;;23.53;20.15
48606;BME280;8482;54.396;18.590;2023-05-12T12:10:18;102348.06;;;23.64;20.26
48606;BME280;8482;54.396;18.590;2023-05-12T12:12:44;102346.03;;;23.74;20.36
48606;BME280;8482;54.396;18.590;2023-05-12T12:15:13;102361.44;;;23.90;20.61
48606;BME280;8482;54.396;18.590;2023-05-12T12:17:39;102357.38;;;24.02;20.20
48606;BME280;8482;54.396;18.590;2023-05-12T12:20:06;102353.81;;;24.10;19.78
48606;BME280;8482;54.396;18.590;2023-05-12T12:22:32;102359.53;;;24.15;19.67
48606;BME280;8482;54.396;18.590;2023-05-12T12:24:59;102350.53;;;24.23;19.71
48606;BME280;8482;54.396;18.590;2023-05-12T12:27:25;102350.34;;;24.33;19.53
48606;BME280;8482;54.396;18.590;2023-05-12T12:29:51;102335.94;;;24.41;19.67
48606;BME280;8482;54.396;18.590;2023-05-12T12:32:17;102325.84;;;24.58;19.71
48606;BME280;8482;54.396;18.590;2023-05-12T12:34:43;102348.88;;;24.70;19.56
48606;BME280;8482;54.396;18.590;2023-05-12T12:37:13;102349.53;;;24.81;19.12
48606;BME280;8482;54.396;18.590;2023-05-12T12:39:39;102351.19;;;24.90;19.03
48606;BME280;8482;54.396;18.590;2023-05-12T12:42:05;102338.94;;;24.94;18.29
48606;BME280;8482;54.396;18.590;2023-05-12T12:44:31;102337.19;;;25.01;18.65
48606;BME280;8482;54.396;18.590;2023-05-12T12:46:57;102333.78;;;25.07;19.07
48606;BME280;8482;54.396;18.590;2023-05-12T12:49:22;102349.81;;;25.17;18.77
48606;BME280;8482;54.396;18.590;2023-05-12T12:51:49;102334.84;;;25.21;20.25
48606;BME280;8482;54.396;18.590;2023-05-12T12:54:15;102346.41;;;25.23;22.05
48606;BME280;8482;54.396;18.590;2023-05-12T12:56:42;102320.19;;;25.31;20.56
48606;BME280;8482;54.396;18.590;2023-05-12T12:59:09;102328.47;;;25.61;19.34
48606;BME280;8482;54.396;18.590;2023-05-12T13:01:34;102327.25;;;25.63;18.99
48606;BME280;8482;54.396;18.590;2023-05-12T13:04:00;102324.63;;;25.55;19.08
48606;BME280;8482;54.396;18.590;2023-05-12T13:06:26;102321.16;;;25.61;19.51
48606;BME280;8482;54.396;18.590;2023-05-12T13:08:53;102329.34;;;25.76;21.71
48606;BME280;8482;54.396;18.590;2023-05-12T13:11:19;102312.78;;;25.86;19.25
48606;BME280;8482;54.396;18.590;2023-05-12T13:13:45;102307.97;;;25.88;19.82
48606;BME280;8482;54.396;18.590;2023-05-12T13:16:11;102324.41;;;25.95;23.71
48606;BME280;8482;54.396;18.590;2023-05-12T13:18:37;102307.91;;;25.96;26.04
48606;BME280;8482;54.396;18.590;2023-05-12T13:21:03;102323.97;;;26.06;29.33
48606;BME280;8482;54.396;18.590;2023-05-12T13:23:29;102313.72;;;26.08;30.38
48606;BME280;8482;54.396;18.590;2023-05-12T13:25:55;102310.84;;;26.10;28.31
48606;BME280;8482;54.396;18.590;2023-05-12T13:28:23;102321.03;;;26.08;27.00
48606;BME280;8482;54.396;18.590;2023-05-12T13:30:51;102325.16;;;26.04;26.01
48606;BME280;8482;54.396;18.590;2023-05-12T13:33:17;102317.94;;;25.96;25.32
48606;BME280;8482;54.396;18.590;2023-05-12T13:35:43;102318.38;;;25.84;25.62
48606;BME280;8482;54.396;18.590;2023-05-12T13:38:08;102317.47;;;25.77;25.37
48606;BME280;8482;54.396;18.590;2023-05-12T13:40:36;102312.28;;;25.67;25.69
48606;BME280;8482;54.396;18.590;2023-05-12T13:43:02;102302.25;;;25.68;25.65
48606;BME280;8482;54.396;18.590;2023-05-12T13:45:28;102306.47;;;25.70;25.50
48606;BME280;8482;54.396;18.590;2023-05-12T13:47:53;102314.28;;;25.74;25.70
48606;BME280;8482;54.396;18.590;2023-05-12T13:50:19;102304.44;;;25.73;25.30
48606;BME280;8482;54.396;18.590;2023-05-12T13:52:45;102313.22;;;25.75;25.78
48606;BME280;8482;54.396;18.590;2023-05-12T13:55:14;102326.06;;;25.81;25.92
48606;BME280;8482;54.396;18.590;2023-05-12T13:57:40;102324.03;;;25.83;25.86
48606;BME280;8482;54.396;18.590;2023-05-12T14:00:06;102317.16;;;25.87;26.11
48606;BME280;8482;54.396;18.590;2023-05-12T14:02:33;102304.53;;;25.94;25.57
48606;BME280;8482;54.396;18.590;2023-05-12T14:04:59;102308.69;;;26.05;25.25
48606;BME280;8482;54.396;18.590;2023-05-12T14:07:24;102313.91;;;26.07;25.73
48606;BME280;8482;54.396;18.590;2023-05-12T14:09:51;102316.97;;;26.12;25.38
48606;BME280;8482;54.396;18.590;2023-05-12T14:12:16;102317.44;;;26.15;25.25
48606;BME280;8482;54.396;18.590;2023-05-12T14:14:42;102313.22;;;26.13;25.69
48606;BME280;8482;54.396;18.590;2023-05-12T14:17:15;102313.91;;;26.07;25.48
48606;BME280;8482;54.396;18.590;2023-05-12T14:19:41;102310.53;;;26.05;25.68
48606;BME280;8482;54.396;18.590;2023-05-12T14:22:07;102303.16;;;25.98;25.48
48606;BME280;8482;54.396;18.590;2023-05-12T14:24:33;102308.28;;;25.93;25.26
48606;BME280;8482;54.396;18.590;2023-05-12T14:26:59;102296.66;;;25.84;25.18
48606;BME280;8482;54.396;18.590;2023-05-12T14:29:25;102295.81;;;25.84;24.86
48606;BME280;8482;54.396;18.590;2023-05-12T14:31:51;102305.56;;;25.93;24.45
48606;BME280;8482;54.396;18.590;2023-05-12T14:34:17;102310.28;;;25.99;24.01
48606;BME280;8482;54.396;18.590;2023-05-12T14:36:44;102307.06;;;25.96;24.17
48606;BME280;8482;54.396;18.590;2023-05-12T14:39:10;102307.25;;;25.94;24.99
48606;BME280;8482;54.396;18.590;2023-05-12T14:41:37;102316.25;;;25.95;24.62
48606;BME280;8482;54.396;18.590;2023-05-12T14:44:03;102318.84;;;25.88;25.36
48606;BME280;8482;54.396;18.590;2023-05-12T14:46:29;102312.69;;;25.79;25.67
48606;BME280;8482;54.396;18.590;2023-05-12T14:48:55;102316.53;;;25.85;25.83
48606;BME280;8482;54.396;18.590;2023-05-12T14:51:21;102316.53;;;25.85;25.49
48606;BME280;8482;54.396;18.590;2023-05-12T14:53:47;102311.72;;;25.87;25.18
48606;BME280;8482;54.396;18.590;2023-05-12T14:56:13;102322.69;;;25.94;24.93
48606;BME280;8482;54.396;18.590;2023-05-12T14:58:39;102315.59;;;25.93;25.35
48606;BME280;8482;54.396;18.590;2023-05-12T15:01:05;102327.13;;;25.95;25.68
48606;BME280;8482;54.396;18.590;2023-05-12T15:03:30;102330.69;;;25.95;25.29
48606;BME280;8482;54.396;18.590;2023-05-12T15:05:58;102316.81;;;25.90;25.70
48606;BME280;8482;54.396;18.590;2023-05-12T15:08:24;102319.25;;;25.85;25.99
48606;BME280;8482;54.396;18.590;2023-05-12T15:10:50;102311.38;;;25.90;26.21
48606;BME280;8482;54.396;18.590;2023-05-12T15:13:16;102320.09;;;26.00;26.38
48606;BME280;8482;54.396;18.590;2023-05-12T15:15:44;102323.44;;;26.11;26.14
48606;BME280;8482;54.396;18.590;2023-05-12T15:18:11;102320.84;;;26.09;26.42
48606;BME280;8482;54.396;18.590;2023-05-12T15:20:37;102331.94;;;26.23;26.56
48606;BME280;8482;54.396;18.590;2023-05-12T15:23:04;102334.97;;;26.28;26.24
48606;BME280;8482;54.396;18.590;2023-05-12T15:25:30;102336.09;;;26.34;25.94
48606;BME280;8482;54.396;18.590;2023-05-12T15:27:56;102332.13;;;26.36;26.27
48606;BME280;8482;54.396;18.590;2023-05-12T15:30:21;102339.63;;;26.34;26.27
48606;BME280;8482;54.396;18.590;2023-05-12T15:32:47;102322.19;;;26.28;25.82
48606;BME280;8482;54.396;18.590;2023-05-12T15:35:13;102323.88;;;26.29;25.70
48606;BME280;8482;54.396;18.590;2023-05-12T15:37:39;102319.75;;;26.34;26.23
48606;BME280;8482;54.396;18.590;2023-05-12T15:40:06;102327.25;;;26.31;26.23
48606;BME280;8482;54.396;18.590;2023-05-12T15:42:32;102322.28;;;26.20;26.29
48606;BME280;8482;54.396;18.590;2023-05-12T15:44:58;102321.38;;;26.13;26.75
48606;BME280;8482;54.396;18.590;2023-05-12T15:47:24;102308.03;;;26.03;26.58
48606;BME280;8482;54.396;18.590;2023-05-12T15:49:50;102315.81;;;26.06;26.77
48606;BME280;8482;54.396;18.590;2023-05-12T15:52:15;102324.13;;;26.05;26.48
48606;BME280;8482;54.396;18.590;2023-05-12T15:54:41;102321.78;;;25.86;26.50
48606;BME280;8482;54.396;18.590;2023-05-12T15:57:07;102317.50;;;25.69;27.02
48606;BME280;8482;54.396;18.590;2023-05-12T15:59:34;102315.59;;;25.54;27.41
48606;BME280;8482;54.396;18.590;2023-05-12T16:02:01;102316.91;;;25.44;27.49
48606;BME280;8482;54.396;18.590;2023-05-12T16:04:26;102306.44;;;25.32;27.50
48606;BME280;8482;54.396;18.590;2023-05-12T16:06:57;102302.41;;;25.28;27.88
48606;BME280;8482;54.396;18.590;2023-05-12T16:09:23;102293.66;;;25.18;27.83
48606;BME280;8482;54.396;18.590;2023-05-12T16:11:49;102296.91;;;25.13;28.35
48606;BME280;8482;54.396;18.590;2023-05-12T16:14:16;102297.28;;;25.10;28.33
48606;BME280;8482;54.396;18.590;2023-05-12T16:16:44;102302.25;;;24.98;28.17
48606;BME280;8482;54.396;18.590;2023-05-12T16:19:16;102304.44;;;24.79;28.51
48606;BME280;8482;54.396;18.590;2023-05-12T16:21:43;102303.94;;;24.68;28.37
48606;BME280;8482;54.396;18.590;2023-05-12T16:24:10;102298.97;;;24.48;28.74
48606;BME280;8482;54.396;18.590;2023-05-12T16:26:36;102296.31;;;24.31;29.10
48606;BME280;8482;54.396;18.590;2023-05-12T16:29:02;102296.03;;;24.18;29.41
48606;BME280;8482;54.396;18.590;2023-05-12T16:31:28;102300.81;;;24.08;29.42
48606;BME280;8482;54.396;18.590;2023-05-12T16:33:56;102298.09;;;23.91;29.52
48606;BME280;8482;54.396;18.590;2023-05-12T16:36:22;102299.47;;;23.70;29.90
48606;BME280;8482;54.396;18.590;2023-05-12T16:38:50;102301.53;;;23.52;30.27
48606;BME280;8482;54.396;18.590;2023-05-12T16:41:16;102303.88;;;23.38;30.46
48606;BME280;8482;54.396;18.590;2023-05-12T16:43:43;102303.69;;;23.23;30.56
48606;BME280;8482;54.396;18.590;2023-05-12T16:46:08;102296.88;;;23.03;30.96
48606;BME280;8482;54.396;18.590;2023-05-12T16:48:34;102295.16;;;22.85;31.18
48606;BME280;8482;54.396;18.590;2023-05-12T16:51:08;102295.06;;;22.60;30.97
48606;BME280;8482;54.396;18.590;2023-05-12T16:53:37;102290.03;;;22.31;31.45
48606;BME280;8482;54.396;18.590;2023-05-12T16:56:03;102294.44;;;22.05;31.49
48606;BME280;8482;54.396;18.590;2023-05-12T16:58:29;102296.69;;;21.84;31.86
48606;BME280;8482;54.396;18.590;2023-05-12T17:00:57;102299.78;;;21.71;32.19
48606;BME280;8482;54.396;18.590;2023-05-12T17:03:23;102304.34;;;21.52;32.50
48606;BME280;8482;54.396;18.590;2023-05-12T17:05:49;102302.16;;;21.30;32.96
48606;BME280;8482;54.396;18.590;2023-05-12T17:08:15;102296.19;;;21.08;33.37
48606;BME280;8482;54.396;18.590;2023-05-12T17:10:41;102300.88;;;20.88;33.55
48606;BME280;8482;54.396;18.590;2023-05-12T17:13:07;102294.72;;;20.67;33.91
48606;BME280;8482;54.396;18.590;2023-05-12T17:15:33;102296.38;;;20.50;34.39
48606;BME280;8482;54.396;18.590;2023-05-12T17:17:59;102289.22;;;20.31;34.71
48606;BME280;8482;54.396;18.590;2023-05-12T17:20:24;102288.84;;;20.16;35.46
48606;BME280;8482;54.396;18.590;2023-05-12T17:22:50;102292.72;;;20.04;35.84
48606;BME280;8482;54.396;18.590;2023-05-12T17:25:17;102296.88;;;19.88;35.77
48606;BME280;8482;54.396;18.590;2023-05-12T17:27:44;102293.72;;;19.73;36.20
48606;BME280;8482;54.396;18.590;2023-05-12T17:30:11;102303.69;;;19.63;36.69
48606;BME280;8482;54.396;18.590;2023-05-12T17:32:37;102295.91;;;19.50;37.11
48606;BME280;8482;54.396;18.590;2023-05-12T17:35:04;102289.38;;;19.33;37.44
48606;BME280;8482;54.396;18.590;2023-05-12T17:37:30;102292.22;;;19.22;37.84
48606;BME280;8482;54.396;18.590;2023-05-12T17:39:56;102292.50;;;19.09;38.08